sensor_id;sensor_type;location;lat;lon;timestamp;pressure;altitude;pressure_sealevel;temperature;humidity
50632;BME280;49583;45.590;-122.498;2023-12-22T00:02:13;101204.36;;;11.00;61.02
50632;BME280;49583;45.590;-122.498;2023-12-22T00:04:25;101201.94;;;11.00;61.19
50632;BME280;49583;45.590;-122.498;2023-12-22T00:06:39;101202.46;;;10.98;61.24
50632;BME280;49583;45.590;-122.498;2023-12-22T00:08:52;101199.75;;;10.97;61.25
50632;BME280;49583;45.590;-122.498;2023-12-22T00:11:05;101191.70;;;10.94;61.33
50632;BME280;49583;45.590;-122.498;2023-12-22T00:13:17;101189.27;;;10.92;61.20
50632;BME280;49583;45.590;-122.498;2023-12-22T00:15:29;101189.61;;;10.88;61.40
50632;BME280;49583;45.590;-122.498;2023-12-22T00:17:42;101196.09;;;10.84;61.43
50632;BME280;49583;45.590;-122.498;2023-12-22T00:19:55;101194.44;;;10.78;61.17
50632;BME280;49583;45.590;-122.498;2023-12-22T00:22:13;101194.98;;;10.72;61.46
50632;BME280;49583;45.590;-122.498;2023-12-22T00:24:25;101194.31;;;10.65;61.40
50632;BME280;49583;45.590;-122.498;2023-12-22T00:26:38;101194.67;;;10.59;61.48
50632;BME280;49583;45.590;-122.498;2023-12-22T00:28:50;101194.33;;;10.53;61.39
50632;BME280;49583;45.590;-122.498;2023-12-22T00:31:03;101195.84;;;10.46;61.64
50632;BME280;49583;45.590;-122.498;2023-12-22T00:33:15;101198.52;;;10.41;61.82
50632;BME280;49583;45.590;-122.498;2023-12-22T00:35:28;101194.13;;;10.35;61.91
50632;BME280;49583;45.590;-122.498;2023-12-22T00:37:41;101196.00;;;10.28;61.58
50632;BME280;49583;45.590;-122.498;2023-12-22T00:39:54;101193.74;;;10.16;61.69
50632;BME280;49583;45.590;-122.498;2023-12-22T00:42:07;101196.79;;;10.09;62.00
50632;BME280;49583;45.590;-122.498;2023-12-22T00:44:19;101197.21;;;10.05;62.17
50632;BME280;49583;45.590;-122.498;2023-12-22T00:46:32;101193.17;;;10.01;62.13
50632;BME280;49583;45.590;-122.498;2023-12-22T00:48:44;101192.41;;;9.96;62.47
50632;BME280;49583;45.590;-122.498;2023-12-22T00:50:57;101191.35;;;9.93;62.34
50632;BME280;49583;45.590;-122.498;2023-12-22T00:53:10;101188.59;;;9.90;62.23
50632;BME280;49583;45.590;-122.498;2023-12-22T00:55:22;101190.95;;;9.85;62.58
50632;BME280;49583;45.590;-122.498;2023-12-22T00:57:35;101190.70;;;9.82;63.03
50632;BME280;49583;45.590;-122.498;2023-12-22T00:59:48;101187.15;;;9.79;63.04
50632;BME280;49583;45.590;-122.498;2023-12-22T01:02:01;101188.59;;;9.75;62.92
50632;BME280;49583;45.590;-122.498;2023-12-22T01:04:13;101188.99;;;9.71;63.05
50632;BME280;49583;45.590;-122.498;2023-12-22T01:06:26;101190.61;;;9.68;63.06
50632;BME280;49583;45.590;-122.498;2023-12-22T01:08:41;101190.61;;;9.65;63.29
50632;BME280;49583;45.590;-122.498;2023-12-22T01:10:53;101187.09;;;9.61;63.12
50632;BME280;49583;45.590;-122.498;2023-12-22T01:13:06;101190.87;;;9.57;63.28
50632;BME280;49583;45.590;-122.498;2023-12-22T01:15:18;101192.76;;;9.55;63.37
50632;BME280;49583;45.590;-122.498;2023-12-22T01:17:31;101193.47;;;9.53;63.33
50632;BME280;49583;45.590;-122.498;2023-12-22T01:19:43;101193.44;;;9.52;63.60
50632;BME280;49583;45.590;-122.498;2023-12-22T01:21:55;101192.08;;;9.51;63.85
50632;BME280;49583;45.590;-122.498;2023-12-22T01:24:08;101195.41;;;9.48;63.62
50632;BME280;49583;45.590;-122.498;2023-12-22T01:26:20;101195.44;;;9.44;63.66
50632;BME280;49583;45.590;-122.498;2023-12-22T01:28:33;101194.99;;;9.40;63.86
50632;BME280;49583;45.590;-122.498;2023-12-22T01:30:46;101199.52;;;9.38;63.85
50632;BME280;49583;45.590;-122.498;2023-12-22T01:32:59;101198.10;;;9.35;64.12
50632;BME280;49583;45.590;-122.498;2023-12-22T01:35:12;101197.48;;;9.33;64.04
50632;BME280;49583;45.590;-122.498;2023-12-22T01:37:24;101196.98;;;9.30;64.43
50632;BME280;49583;45.590;-122.498;2023-12-22T01:39:36;101197.79;;;9.29;64.36
50632;BME280;49583;45.590;-122.498;2023-12-22T01:41:49;101194.73;;;9.25;64.31
50632;BME280;49583;45.590;-122.498;2023-12-22T01:44:01;101197.77;;;9.23;64.46
50632;BME280;49583;45.590;-122.498;2023-12-22T01:46:14;101202.36;;;9.21;64.25
50632;BME280;49583;45.590;-122.498;2023-12-22T01:48:28;101204.42;;;9.17;64.57
50632;BME280;49583;45.590;-122.498;2023-12-22T01:50:41;101206.30;;;9.13;64.15
50632;BME280;49583;45.590;-122.498;2023-12-22T01:52:55;101206.42;;;9.08;64.57
50632;BME280;49583;45.590;-122.498;2023-12-22T01:55:09;101207.17;;;9.02;64.57
50632;BME280;49583;45.590;-122.498;2023-12-22T01:57:23;101208.40;;;8.98;64.52
50632;BME280;49583;45.590;-122.498;2023-12-22T01:59:36;101210.46;;;8.92;64.71
50632;BME280;49583;45.590;-122.498;2023-12-22T02:01:49;101205.77;;;8.87;64.94
50632;BME280;49583;45.590;-122.498;2023-12-22T02:04:02;101207.30;;;8.80;64.86
50632;BME280;49583;45.590;-122.498;2023-12-22T02:06:14;101210.71;;;8.71;64.79
50632;BME280;49583;45.590;-122.498;2023-12-22T02:08:28;101208.82;;;8.62;64.98
50632;BME280;49583;45.590;-122.498;2023-12-22T02:10:43;101208.85;;;8.55;64.96
50632;BME280;49583;45.590;-122.498;2023-12-22T02:12:56;101207.23;;;8.49;65.17
50632;BME280;49583;45.590;-122.498;2023-12-22T02:15:10;101202.73;;;8.43;65.39
50632;BME280;49583;45.590;-122.498;2023-12-22T02:17:29;101203.21;;;8.38;65.36
50632;BME280;49583;45.590;-122.498;2023-12-22T02:19:46;101199.52;;;8.32;65.56
50632;BME280;49583;45.590;-122.498;2023-12-22T02:22:05;101197.80;;;8.24;65.56
50632;BME280;49583;45.590;-122.498;2023-12-22T02:24:18;101201.42;;;8.19;65.88
50632;BME280;49583;45.590;-122.498;2023-12-22T02:26:36;101200.84;;;8.14;65.91
50632;BME280;49583;45.590;-122.498;2023-12-22T02:28:55;101200.39;;;8.08;66.05
50632;BME280;49583;45.590;-122.498;2023-12-22T02:31:13;101206.20;;;8.03;66.37
50632;BME280;49583;45.590;-122.498;2023-12-22T02:33:30;101207.79;;;7.98;66.39
50632;BME280;49583;45.590;-122.498;2023-12-22T02:35:44;101205.60;;;7.94;66.52
50632;BME280;49583;45.590;-122.498;2023-12-22T02:38:01;101203.08;;;7.90;66.45
50632;BME280;49583;45.590;-122.498;2023-12-22T02:40:16;101199.35;;;7.86;66.71
50632;BME280;49583;45.590;-122.498;2023-12-22T02:42:29;101198.91;;;7.83;67.04
50632;BME280;49583;45.590;-122.498;2023-12-22T02:44:43;101204.03;;;7.81;67.10
50632;BME280;49583;45.590;-122.498;2023-12-22T02:46:55;101209.04;;;7.78;67.38
50632;BME280;49583;45.590;-122.498;2023-12-22T02:49:08;101203.85;;;7.75;67.26
50632;BME280;49583;45.590;-122.498;2023-12-22T02:51:23;101209.84;;;7.70;67.45
50632;BME280;49583;45.590;-122.498;2023-12-22T02:53:35;101213.02;;;7.68;67.43
50632;BME280;49583;45.590;-122.498;2023-12-22T02:55:48;101212.43;;;7.65;67.59
50632;BME280;49583;45.590;-122.498;2023-12-22T02:58:01;101214.94;;;7.62;67.78
50632;BME280;49583;45.590;-122.498;2023-12-22T03:00:15;101221.27;;;7.59;67.81
50632;BME280;49583;45.590;-122.498;2023-12-22T03:02:28;101224.88;;;7.56;67.84
50632;BME280;49583;45.590;-122.498;2023-12-22T03:04:41;101226.82;;;7.52;67.86
50632;BME280;49583;45.590;-122.498;2023-12-22T03:06:53;101227.98;;;7.50;68.04
50632;BME280;49583;45.590;-122.498;2023-12-22T03:09:06;101231.52;;;7.46;68.06
50632;BME280;49583;45.590;-122.498;2023-12-22T03:11:18;101233.73;;;7.41;67.98
50632;BME280;49583;45.590;-122.498;2023-12-22T03:13:31;101234.45;;;7.35;68.20
50632;BME280;49583;45.590;-122.498;2023-12-22T03:15:44;101240.89;;;7.31;68.34
50632;BME280;49583;45.590;-122.498;2023-12-22T03:17:58;101244.87;;;7.28;68.53
50632;BME280;49583;45.590;-122.498;2023-12-22T03:20:12;101248.55;;;7.27;68.85
50632;BME280;49583;45.590;-122.498;2023-12-22T03:22:24;101244.48;;;7.23;68.78
50632;BME280;49583;45.590;-122.498;2023-12-22T03:24:37;101247.13;;;7.19;68.81
50632;BME280;49583;45.590;-122.498;2023-12-22T03:26:50;101248.02;;;7.15;68.81
50632;BME280;49583;45.590;-122.498;2023-12-22T03:29:02;101247.85;;;7.11;68.93
50632;BME280;49583;45.590;-122.498;2023-12-22T03:31:15;101251.75;;;7.08;69.10
50632;BME280;49583;45.590;-122.498;2023-12-22T03:33:28;101250.00;;;7.05;69.27
50632;BME280;49583;45.590;-122.498;2023-12-22T03:35:40;101252.94;;;7.05;69.36
50632;BME280;49583;45.590;-122.498;2023-12-22T03:37:53;101246.70;;;7.04;69.36
50632;BME280;49583;45.590;-122.498;2023-12-22T03:40:06;101251.55;;;7.05;69.69
50632;BME280;49583;45.590;-122.498;2023-12-22T03:42:20;101252.70;;;7.07;69.80
50632;BME280;49583;45.590;-122.498;2023-12-22T03:44:32;101247.90;;;7.09;70.06
50632;BME280;49583;45.590;-122.498;2023-12-22T03:46:46;101245.41;;;7.12;70.10
50632;BME280;49583;45.590;-122.498;2023-12-22T03:48:58;101245.73;;;7.14;70.23
50632;BME280;49583;45.590;-122.498;2023-12-22T03:51:11;101245.17;;;7.17;70.29
50632;BME280;49583;45.590;-122.498;2023-12-22T03:53:25;101244.51;;;7.20;70.44
50632;BME280;49583;45.590;-122.498;2023-12-22T03:55:37;101245.35;;;7.21;70.40
50632;BME280;49583;45.590;-122.498;2023-12-22T03:57:49;101243.01;;;7.23;70.45
50632;BME280;49583;45.590;-122.498;2023-12-22T04:00:02;101238.73;;;7.26;70.46
50632;BME280;49583;45.590;-122.498;2023-12-22T04:02:15;101240.23;;;7.29;70.51
50632;BME280;49583;45.590;-122.498;2023-12-22T04:04:28;101242.02;;;7.30;70.51
50632;BME280;49583;45.590;-122.498;2023-12-22T04:06:42;101246.24;;;7.31;70.32
50632;BME280;49583;45.590;-122.498;2023-12-22T04:08:55;101244.48;;;7.31;70.42
50632;BME280;49583;45.590;-122.498;2023-12-22T04:11:07;101238.27;;;7.32;70.46
50632;BME280;49583;45.590;-122.498;2023-12-22T04:13:20;101238.61;;;7.31;70.53
50632;BME280;49583;45.590;-122.498;2023-12-22T04:15:33;101238.20;;;7.30;70.49
50632;BME280;49583;45.590;-122.498;2023-12-22T04:17:46;101239.30;;;7.32;70.42
50632;BME280;49583;45.590;-122.498;2023-12-22T04:19:58;101241.76;;;7.33;70.49
50632;BME280;49583;45.590;-122.498;2023-12-22T04:22:11;101243.69;;;7.34;70.44
50632;BME280;49583;45.590;-122.498;2023-12-22T04:24:23;101243.13;;;7.34;70.47
50632;BME280;49583;45.590;-122.498;2023-12-22T04:26:36;101246.52;;;7.38;70.65
50632;BME280;49583;45.590;-122.498;2023-12-22T04:28:48;101245.30;;;7.40;70.55
50632;BME280;49583;45.590;-122.498;2023-12-22T04:31:00;101242.83;;;7.41;70.44
50632;BME280;49583;45.590;-122.498;2023-12-22T04:33:13;101239.34;;;7.41;70.35
50632;BME280;49583;45.590;-122.498;2023-12-22T04:35:25;101241.61;;;7.41;70.35
50632;BME280;49583;45.590;-122.498;2023-12-22T04:37:38;101239.91;;;7.40;70.23
50632;BME280;49583;45.590;-122.498;2023-12-22T04:39:51;101235.29;;;7.38;70.12
50632;BME280;49583;45.590;-122.498;2023-12-22T04:42:03;101242.05;;;7.34;69.99
50632;BME280;49583;45.590;-122.498;2023-12-22T04:44:16;101238.86;;;7.31;70.06
50632;BME280;49583;45.590;-122.498;2023-12-22T04:46:28;101238.67;;;7.29;70.04
50632;BME280;49583;45.590;-122.498;2023-12-22T04:48:41;101239.49;;;7.24;69.90
50632;BME280;49583;45.590;-122.498;2023-12-22T04:50:53;101237.87;;;7.19;69.89
50632;BME280;49583;45.590;-122.498;2023-12-22T04:53:06;101238.70;;;7.15;70.10
50632;BME280;49583;45.590;-122.498;2023-12-22T04:55:18;101238.33;;;7.12;69.88
50632;BME280;49583;45.590;-122.498;2023-12-22T04:57:32;101236.62;;;7.07;70.05
50632;BME280;49583;45.590;-122.498;2023-12-22T04:59:44;101236.25;;;7.04;70.22
50632;BME280;49583;45.590;-122.498;2023-12-22T05:01:57;101238.04;;;6.99;70.20
50632;BME280;49583;45.590;-122.498;2023-12-22T05:04:09;101236.70;;;6.95;70.21
50632;BME280;49583;45.590;-122.498;2023-12-22T05:06:22;101237.02;;;6.88;70.24
50632;BME280;49583;45.590;-122.498;2023-12-22T05:08:34;101232.34;;;6.83;70.21
50632;BME280;49583;45.590;-122.498;2023-12-22T05:10:47;101232.52;;;6.78;70.21
50632;BME280;49583;45.590;-122.498;2023-12-22T05:12:59;101233.21;;;6.73;70.51
50632;BME280;49583;45.590;-122.498;2023-12-22T05:15:12;101234.32;;;6.68;70.56
50632;BME280;49583;45.590;-122.498;2023-12-22T05:17:25;101230.58;;;6.63;70.57
50632;BME280;49583;45.590;-122.498;2023-12-22T05:19:38;101230.89;;;6.58;70.58
50632;BME280;49583;45.590;-122.498;2023-12-22T05:21:51;101228.19;;;6.53;70.74
50632;BME280;49583;45.590;-122.498;2023-12-22T05:24:06;101227.95;;;6.49;70.74
50632;BME280;49583;45.590;-122.498;2023-12-22T05:26:21;101225.75;;;6.44;70.88
50632;BME280;49583;45.590;-122.498;2023-12-22T05:28:34;101231.77;;;6.41;71.03
50632;BME280;49583;45.590;-122.498;2023-12-22T05:30:46;101227.44;;;6.38;70.83
50632;BME280;49583;45.590;-122.498;2023-12-22T05:32:59;101223.43;;;6.36;70.97
50632;BME280;49583;45.590;-122.498;2023-12-22T05:35:11;101222.64;;;6.34;71.26
50632;BME280;49583;45.590;-122.498;2023-12-22T05:37:24;101216.52;;;6.31;71.05
50632;BME280;49583;45.590;-122.498;2023-12-22T05:39:36;101218.84;;;6.28;71.13
50632;BME280;49583;45.590;-122.498;2023-12-22T05:41:49;101219.89;;;6.24;71.14
50632;BME280;49583;45.590;-122.498;2023-12-22T05:44:01;101218.71;;;6.20;71.11
50632;BME280;49583;45.590;-122.498;2023-12-22T05:46:14;101223.14;;;6.17;71.22
50632;BME280;49583;45.590;-122.498;2023-12-22T05:48:26;101222.93;;;6.14;71.14
50632;BME280;49583;45.590;-122.498;2023-12-22T05:50:39;101225.61;;;6.12;71.41
50632;BME280;49583;45.590;-122.498;2023-12-22T05:52:52;101229.38;;;6.10;71.53
50632;BME280;49583;45.590;-122.498;2023-12-22T05:55:05;101231.15;;;6.08;71.52
50632;BME280;49583;45.590;-122.498;2023-12-22T05:57:18;101235.39;;;6.08;71.65
50632;BME280;49583;45.590;-122.498;2023-12-22T05:59:30;101238.02;;;6.09;71.90
50632;BME280;49583;45.590;-122.498;2023-12-22T06:01:43;101245.16;;;6.09;71.97
50632;BME280;49583;45.590;-122.498;2023-12-22T06:03:55;101248.79;;;6.10;72.49
50632;BME280;49583;45.590;-122.498;2023-12-22T06:06:08;101249.83;;;6.08;71.98
50632;BME280;49583;45.590;-122.498;2023-12-22T06:08:21;101251.12;;;6.06;72.03
50632;BME280;49583;45.590;-122.498;2023-12-22T06:10:33;101252.05;;;6.04;72.28
50632;BME280;49583;45.590;-122.498;2023-12-22T06:12:46;101250.41;;;6.02;72.21
50632;BME280;49583;45.590;-122.498;2023-12-22T06:14:58;101251.46;;;6.00;72.37
50632;BME280;49583;45.590;-122.498;2023-12-22T06:17:10;101249.33;;;5.98;72.46
50632;BME280;49583;45.590;-122.498;2023-12-22T06:19:23;101244.88;;;5.94;72.32
50632;BME280;49583;45.590;-122.498;2023-12-22T06:21:41;101243.80;;;5.90;72.25
50632;BME280;49583;45.590;-122.498;2023-12-22T06:23:54;101246.00;;;5.86;72.41
50632;BME280;49583;45.590;-122.498;2023-12-22T06:26:10;101244.55;;;5.81;72.65
50632;BME280;49583;45.590;-122.498;2023-12-22T06:28:23;101244.13;;;5.76;72.63
50632;BME280;49583;45.590;-122.498;2023-12-22T06:30:35;101246.58;;;5.72;72.79
50632;BME280;49583;45.590;-122.498;2023-12-22T06:32:48;101250.36;;;5.69;72.75
50632;BME280;49583;45.590;-122.498;2023-12-22T06:35:01;101252.97;;;5.65;72.94
50632;BME280;49583;45.590;-122.498;2023-12-22T06:37:13;101261.86;;;5.61;73.14
50632;BME280;49583;45.590;-122.498;2023-12-22T06:39:26;101267.06;;;5.60;73.05
50632;BME280;49583;45.590;-122.498;2023-12-22T06:41:40;101268.07;;;5.58;73.42
50632;BME280;49583;45.590;-122.498;2023-12-22T06:43:52;101267.60;;;5.58;73.27
50632;BME280;49583;45.590;-122.498;2023-12-22T06:46:13;101271.52;;;5.58;73.70
50632;BME280;49583;45.590;-122.498;2023-12-22T06:48:26;101268.20;;;5.54;73.71
50632;BME280;49583;45.590;-122.498;2023-12-22T06:50:40;101270.05;;;5.54;73.52
50632;BME280;49583;45.590;-122.498;2023-12-22T06:52:55;101267.81;;;5.52;73.91
50632;BME280;49583;45.590;-122.498;2023-12-22T06:55:18;101269.59;;;5.50;74.03
50632;BME280;49583;45.590;-122.498;2023-12-22T06:57:30;101271.77;;;5.49;74.11
50632;BME280;49583;45.590;-122.498;2023-12-22T06:59:45;101271.11;;;5.47;73.95
50632;BME280;49583;45.590;-122.498;2023-12-22T07:01:59;101267.61;;;5.45;74.18
50632;BME280;49583;45.590;-122.498;2023-12-22T07:07:18;101265.86;;;5.39;74.08
50632;BME280;49583;45.590;-122.498;2023-12-22T07:09:34;101269.19;;;5.39;74.27
50632;BME280;49583;45.590;-122.498;2023-12-22T07:11:48;101266.06;;;5.37;74.23
50632;BME280;49583;45.590;-122.498;2023-12-22T07:14:00;101263.02;;;5.33;74.37
50632;BME280;49583;45.590;-122.498;2023-12-22T07:16:14;101262.09;;;5.29;74.72
50632;BME280;49583;45.590;-122.498;2023-12-22T07:18:26;101259.65;;;5.26;74.65
50632;BME280;49583;45.590;-122.498;2023-12-22T07:20:40;101261.85;;;5.26;74.85
50632;BME280;49583;45.590;-122.498;2023-12-22T07:22:52;101260.36;;;5.24;75.04
50632;BME280;49583;45.590;-122.498;2023-12-22T07:25:07;101256.24;;;5.20;75.14
50632;BME280;49583;45.590;-122.498;2023-12-22T07:27:22;101248.60;;;5.15;75.19
50632;BME280;49583;45.590;-122.498;2023-12-22T07:29:36;101244.83;;;5.13;75.35
50632;BME280;49583;45.590;-122.498;2023-12-22T07:31:49;101239.57;;;5.11;75.55
50632;BME280;49583;45.590;-122.498;2023-12-22T07:34:01;101240.30;;;5.10;75.84
50632;BME280;49583;45.590;-122.498;2023-12-22T07:36:17;101239.64;;;5.08;75.76
50632;BME280;49583;45.590;-122.498;2023-12-22T07:38:32;101234.58;;;5.06;75.77
50632;BME280;49583;45.590;-122.498;2023-12-22T07:40:44;101234.49;;;5.05;75.69
50632;BME280;49583;45.590;-122.498;2023-12-22T07:42:57;101235.04;;;5.02;75.81
50632;BME280;49583;45.590;-122.498;2023-12-22T07:45:10;101233.56;;;5.01;76.09
50632;BME280;49583;45.590;-122.498;2023-12-22T07:47:23;101231.88;;;4.99;75.98
50632;BME280;49583;45.590;-122.498;2023-12-22T07:49:35;101234.48;;;4.95;76.21
50632;BME280;49583;45.590;-122.498;2023-12-22T07:51:47;101232.13;;;4.90;76.28
50632;BME280;49583;45.590;-122.498;2023-12-22T07:54:01;101233.98;;;4.87;76.32
50632;BME280;49583;45.590;-122.498;2023-12-22T07:56:15;101234.90;;;4.87;76.75
50632;BME280;49583;45.590;-122.498;2023-12-22T07:58:27;101234.45;;;4.87;76.85
50632;BME280;49583;45.590;-122.498;2023-12-22T08:00:40;101236.61;;;4.87;76.73
50632;BME280;49583;45.590;-122.498;2023-12-22T08:02:52;101235.81;;;4.87;76.62
50632;BME280;49583;45.590;-122.498;2023-12-22T08:05:05;101230.39;;;4.87;76.67
50632;BME280;49583;45.590;-122.498;2023-12-22T08:07:18;101229.46;;;4.87;76.67
50632;BME280;49583;45.590;-122.498;2023-12-22T08:09:31;101228.47;;;4.87;76.83
50632;BME280;49583;45.590;-122.498;2023-12-22T08:11:44;101220.98;;;4.85;77.08
50632;BME280;49583;45.590;-122.498;2023-12-22T08:13:58;101220.86;;;4.85;76.83
50632;BME280;49583;45.590;-122.498;2023-12-22T08:16:10;101215.25;;;4.84;77.11
50632;BME280;49583;45.590;-122.498;2023-12-22T08:18:22;101214.39;;;4.81;77.24
50632;BME280;49583;45.590;-122.498;2023-12-22T08:20:35;101224.39;;;4.82;77.28
50632;BME280;49583;45.590;-122.498;2023-12-22T08:22:52;101219.85;;;4.81;76.95
50632;BME280;49583;45.590;-122.498;2023-12-22T08:25:06;101214.61;;;4.79;77.40
50632;BME280;49583;45.590;-122.498;2023-12-22T08:27:22;101209.27;;;4.77;77.32
50632;BME280;49583;45.590;-122.498;2023-12-22T08:29:34;101204.92;;;4.77;77.37
50632;BME280;49583;45.590;-122.498;2023-12-22T08:31:47;101202.34;;;4.77;77.46
50632;BME280;49583;45.590;-122.498;2023-12-22T08:33:59;101203.71;;;4.76;77.24
50632;BME280;49583;45.590;-122.498;2023-12-22T08:36:12;101201.95;;;4.74;77.48
50632;BME280;49583;45.590;-122.498;2023-12-22T08:38:25;101198.57;;;4.72;77.58
50632;BME280;49583;45.590;-122.498;2023-12-22T08:40:37;101191.50;;;4.70;77.39
50632;BME280;49583;45.590;-122.498;2023-12-22T08:42:50;101188.19;;;4.67;77.66
50632;BME280;49583;45.590;-122.498;2023-12-22T08:45:05;101184.75;;;4.63;77.43
50632;BME280;49583;45.590;-122.498;2023-12-22T08:47:17;101182.85;;;4.61;77.79
50632;BME280;49583;45.590;-122.498;2023-12-22T08:49:30;101185.52;;;4.61;77.76
50632;BME280;49583;45.590;-122.498;2023-12-22T08:51:42;101186.46;;;4.59;77.79
50632;BME280;49583;45.590;-122.498;2023-12-22T08:53:55;101188.24;;;4.59;77.86
50632;BME280;49583;45.590;-122.498;2023-12-22T08:56:07;101181.89;;;4.60;77.93
50632;BME280;49583;45.590;-122.498;2023-12-22T08:58:20;101181.42;;;4.59;77.87
50632;BME280;49583;45.590;-122.498;2023-12-22T09:00:33;101181.42;;;4.59;78.05
50632;BME280;49583;45.590;-122.498;2023-12-22T09:02:45;101179.80;;;4.59;77.72
50632;BME280;49583;45.590;-122.498;2023-12-22T09:04:57;101179.19;;;4.60;78.23
50632;BME280;49583;45.590;-122.498;2023-12-22T09:07:10;101174.52;;;4.59;77.75
50632;BME280;49583;45.590;-122.498;2023-12-22T09:09:22;101170.95;;;4.59;78.02
50632;BME280;49583;45.590;-122.498;2023-12-22T09:11:35;101163.44;;;4.58;78.09
50632;BME280;49583;45.590;-122.498;2023-12-22T09:13:48;101162.27;;;4.59;78.11
50632;BME280;49583;45.590;-122.498;2023-12-22T09:16:01;101159.93;;;4.59;78.08
50632;BME280;49583;45.590;-122.498;2023-12-22T09:18:14;101159.73;;;4.58;78.12
50632;BME280;49583;45.590;-122.498;2023-12-22T09:20:26;101159.31;;;4.58;78.20
50632;BME280;49583;45.590;-122.498;2023-12-22T09:22:40;101153.92;;;4.57;78.08
50632;BME280;49583;45.590;-122.498;2023-12-22T09:24:52;101159.11;;;4.57;78.01
50632;BME280;49583;45.590;-122.498;2023-12-22T09:27:05;101159.22;;;4.56;77.94
50632;BME280;49583;45.590;-122.498;2023-12-22T09:29:18;101161.82;;;4.53;77.97
50632;BME280;49583;45.590;-122.498;2023-12-22T09:31:31;101156.25;;;4.52;78.17
50632;BME280;49583;45.590;-122.498;2023-12-22T09:33:44;101155.77;;;4.51;78.16
50632;BME280;49583;45.590;-122.498;2023-12-22T09:35:57;101149.08;;;4.50;78.15
50632;BME280;49583;45.590;-122.498;2023-12-22T09:38:10;101145.72;;;4.50;78.09
50632;BME280;49583;45.590;-122.498;2023-12-22T09:40:23;101146.66;;;4.47;78.18
50632;BME280;49583;45.590;-122.498;2023-12-22T09:42:35;101149.46;;;4.50;78.37
50632;BME280;49583;45.590;-122.498;2023-12-22T09:44:51;101149.55;;;4.51;78.41
50632;BME280;49583;45.590;-122.498;2023-12-22T09:47:06;101154.31;;;4.51;78.48
50632;BME280;49583;45.590;-122.498;2023-12-22T09:49:19;101163.20;;;4.52;78.73
50632;BME280;49583;45.590;-122.498;2023-12-22T09:51:35;101163.34;;;4.53;78.66
50632;BME280;49583;45.590;-122.498;2023-12-22T09:53:49;101170.84;;;4.55;78.76
50632;BME280;49583;45.590;-122.498;2023-12-22T09:56:03;101160.78;;;4.58;78.73
50632;BME280;49583;45.590;-122.498;2023-12-22T09:58:16;101157.59;;;4.60;78.99
50632;BME280;49583;45.590;-122.498;2023-12-22T10:00:29;101156.72;;;4.63;78.90
50632;BME280;49583;45.590;-122.498;2023-12-22T10:02:43;101155.69;;;4.62;79.05
50632;BME280;49583;45.590;-122.498;2023-12-22T10:04:56;101156.65;;;4.68;79.28
50632;BME280;49583;45.590;-122.498;2023-12-22T10:07:09;101158.11;;;4.70;79.16
50632;BME280;49583;45.590;-122.498;2023-12-22T10:09:24;101159.25;;;4.73;79.24
50632;BME280;49583;45.590;-122.498;2023-12-22T10:11:38;101158.65;;;4.75;79.15
50632;BME280;49583;45.590;-122.498;2023-12-22T10:13:52;101162.08;;;4.76;79.37
50632;BME280;49583;45.590;-122.498;2023-12-22T10:16:08;101169.23;;;4.78;79.15
50632;BME280;49583;45.590;-122.498;2023-12-22T10:18:21;101176.58;;;4.79;79.32
50632;BME280;49583;45.590;-122.498;2023-12-22T10:20:34;101186.65;;;4.81;79.36
50632;BME280;49583;45.590;-122.498;2023-12-22T10:22:46;101188.04;;;4.82;79.39
50632;BME280;49583;45.590;-122.498;2023-12-22T10:24:59;101188.86;;;4.84;79.42
50632;BME280;49583;45.590;-122.498;2023-12-22T10:27:13;101185.96;;;4.85;79.40
50632;BME280;49583;45.590;-122.498;2023-12-22T10:29:26;101185.73;;;4.86;79.72
50632;BME280;49583;45.590;-122.498;2023-12-22T10:31:43;101182.45;;;4.87;79.42
50632;BME280;49583;45.590;-122.498;2023-12-22T10:33:55;101176.39;;;4.88;79.69
50632;BME280;49583;45.590;-122.498;2023-12-22T10:36:09;101176.27;;;4.87;79.70
50632;BME280;49583;45.590;-122.498;2023-12-22T10:38:23;101175.24;;;4.88;79.58
50632;BME280;49583;45.590;-122.498;2023-12-22T10:40:35;101173.91;;;4.89;79.94
50632;BME280;49583;45.590;-122.498;2023-12-22T10:42:50;101185.01;;;4.91;79.51
50632;BME280;49583;45.590;-122.498;2023-12-22T10:45:03;101190.02;;;4.90;79.82
50632;BME280;49583;45.590;-122.498;2023-12-22T10:47:16;101198.66;;;4.92;79.94
50632;BME280;49583;45.590;-122.498;2023-12-22T10:49:29;101191.32;;;4.93;80.12
50632;BME280;49583;45.590;-122.498;2023-12-22T10:51:44;101192.74;;;4.94;79.83
50632;BME280;49583;45.590;-122.498;2023-12-22T10:53:56;101197.23;;;4.93;79.82
50632;BME280;49583;45.590;-122.498;2023-12-22T10:56:09;101198.28;;;4.92;79.31
50632;BME280;49583;45.590;-122.498;2023-12-22T10:58:22;101194.41;;;4.90;79.14
50632;BME280;49583;45.590;-122.498;2023-12-22T11:00:34;101190.20;;;4.87;79.30
50632;BME280;49583;45.590;-122.498;2023-12-22T11:02:49;101188.34;;;4.86;79.01
50632;BME280;49583;45.590;-122.498;2023-12-22T11:05:09;101180.56;;;4.84;78.92
50632;BME280;49583;45.590;-122.498;2023-12-22T11:07:25;101176.92;;;4.82;78.82
50632;BME280;49583;45.590;-122.498;2023-12-22T11:09:38;101176.71;;;4.77;78.55
50632;BME280;49583;45.590;-122.498;2023-12-22T11:11:54;101176.02;;;4.75;78.92
50632;BME280;49583;45.590;-122.498;2023-12-22T11:14:09;101175.00;;;4.73;78.57
50632;BME280;49583;45.590;-122.498;2023-12-22T11:16:23;101176.06;;;4.71;78.60
50632;BME280;49583;45.590;-122.498;2023-12-22T11:18:37;101178.59;;;4.69;78.77
50632;BME280;49583;45.590;-122.498;2023-12-22T11:20:50;101175.78;;;4.66;78.57
50632;BME280;49583;45.590;-122.498;2023-12-22T11:23:04;101170.73;;;4.64;78.85